La Joya, New Mexico
Current Conditions -  °F | °C
As of 7:35 PM on Saturday 22 Nov 2014 (Local Time) from KE80 Reporting Station
Clear Clear  
Wind Chill: 51°   Ceiling: Unl
Heat Index: 51°   Visibility: 10mi
Dew Point: 13°   Wind: 3mph
Humidity: 21%   Direction: 220°SW
Pressure: 29.91"   Gusts: NA
Location:  34.35°N, 106.84°W
Report Text: KE80 230235Z AUTO 22003KT 10SM CLR 11/M11 A2991 RMK AO2 T01071108
Loading
Personal Weather Stations






























Interactive Weather Map New forecast layout! Learn more

10-Day Weather Forecast

Advertisements
Track Severe Weather on mobile